Terminal Aerodrome Forecast
Issued by NWS

Home | Current Version | Previous Version | Text Only | Print | Product List | Glossary On
Versions: 1 2 3 4 5 6 7 8 9 10 11 12 13 14 15 16 17 18 19 20 21 22 23 24 25 26 27 28 29 30 31 32
000
FTUS43 KLOT 262100 AAB
TAFORD
TAF AMD
KORD 262159Z 2622/2724 20011KT P6SM SCT030 BKN150
     FM270100 19010KT P6SM BKN020 OVC040
     FM270500 19008KT P6SM OVC012
     FM270900 18009KT 3SM -DZRA BR OVC008
     FM271500 23014G22KT P6SM SCT008 OVC015
     FM271800 27016G25KT P6SM BKN025=

USA.gov is the U.S. government's official web portal to all federal, state and local government web resources and services.